Aviation Digital Data Service (ADDS)

Output produced by METARs form (1508 UTC 20 March 2019)
found at http://www.aviationweather.gov/metar/data/
 
METAR text: UTNN 201430Z 22004KT 9999 FEW050CB 16/05 Q1016 R15/CLRD60 NOSIG
Conditions at: UTNN (NUKUS/KARAKALPAK, UZ) observed 1430 UTC 20 March 2019
Temperature: 16.0°C (61°F)
Dewpoint: 5.0°C (41°F) [RH = 48%]
Pressure (altimeter): 30.00 inches Hg (1016.0 mb)
Winds: from the SW (220 degrees) at 5 MPH (4 knots; 2.1 m/s)
Visibility: 6 or more miles (10+ km)
Ceiling: at least 12,000 feet AGL
Clouds: few clouds at 5000 feet AGL
Weather: no significant weather observed at this time

METAR text: UTNN 201400Z 20004KT 9999 FEW050CB 16/05 Q1015 R15/CLRD60 NOSIG
Conditions at: UTNN (NUKUS/KARAKALPAK, UZ) observed 1400 UTC 20 March 2019
Temperature: 16.0°C (61°F)
Dewpoint: 5.0°C (41°F) [RH = 48%]
Pressure (altimeter): 29.97 inches Hg (1015.0 mb)
Winds: from the SSW (200 degrees) at 5 MPH (4 knots; 2.1 m/s)
Visibility: 6 or more miles (10+ km)
Ceiling: at least 12,000 feet AGL
Clouds: few clouds at 5000 feet AGL
Weather: no significant weather observed at this time

METAR text: UTNN 201330Z 15004KT 9999 FEW050CB 16/05 Q1015 R33/CLRD60 NOSIG
Conditions at: UTNN (NUKUS/KARAKALPAK, UZ) observed 1330 UTC 20 March 2019
Temperature: 16.0°C (61°F)
Dewpoint: 5.0°C (41°F) [RH = 48%]
Pressure (altimeter): 29.97 inches Hg (1015.0 mb)
Winds: from the SSE (150 degrees) at 5 MPH (4 knots; 2.1 m/s)
Visibility: 6 or more miles (10+ km)
Ceiling: at least 12,000 feet AGL
Clouds: few clouds at 5000 feet AGL
Weather: no significant weather observed at this time

METAR text: UTNN 201300Z 12006KT 9999 FEW050CB 17/05 Q1015 R33/CLRD60 NOSIG
Conditions at: UTNN (NUKUS/KARAKALPAK, UZ) observed 1300 UTC 20 March 2019
Temperature: 17.0°C (63°F)
Dewpoint: 5.0°C (41°F) [RH = 45%]
Pressure (altimeter): 29.97 inches Hg (1015.0 mb)
Winds: from the ESE (120 degrees) at 7 MPH (6 knots; 3.1 m/s)
Visibility: 6 or more miles (10+ km)
Ceiling: at least 12,000 feet AGL
Clouds: few clouds at 5000 feet AGL
Weather: no significant weather observed at this time

METAR text: UTNN 201230Z 12004KT 9999 FEW050CB 17/05 Q1015 R33/CLRD60 NOSIG
Conditions at: UTNN (NUKUS/KARAKALPAK, UZ) observed 1230 UTC 20 March 2019
Temperature: 17.0°C (63°F)
Dewpoint: 5.0°C (41°F) [RH = 45%]
Pressure (altimeter): 29.97 inches Hg (1015.0 mb)
Winds: from the ESE (120 degrees) at 5 MPH (4 knots; 2.1 m/s)
Visibility: 6 or more miles (10+ km)
Ceiling: at least 12,000 feet AGL
Clouds: few clouds at 5000 feet AGL
Weather: no significant weather observed at this time

METAR text: UTNN 201200Z 12004KT 9999 FEW050CB 17/04 Q1015 R33/CLRD60 NOSIG
Conditions at: UTNN (NUKUS/KARAKALPAK, UZ) observed 1200 UTC 20 March 2019
Temperature: 17.0°C (63°F)
Dewpoint: 4.0°C (39°F) [RH = 42%]
Pressure (altimeter): 29.97 inches Hg (1015.0 mb)
Winds: from the ESE (120 degrees) at 5 MPH (4 knots; 2.1 m/s)
Visibility: 6 or more miles (10+ km)
Ceiling: at least 12,000 feet AGL
Clouds: few clouds at 5000 feet AGL
Weather: no significant weather observed at this time

METAR text: UTNN 201130Z 12006KT 9999 FEW050CB 17/04 Q1015 R33/CLRD60 NOSIG
Conditions at: UTNN (NUKUS/KARAKALPAK, UZ) observed 1130 UTC 20 March 2019
Temperature: 17.0°C (63°F)
Dewpoint: 4.0°C (39°F) [RH = 42%]
Pressure (altimeter): 29.97 inches Hg (1015.0 mb)
Winds: from the ESE (120 degrees) at 7 MPH (6 knots; 3.1 m/s)
Visibility: 6 or more miles (10+ km)
Ceiling: at least 12,000 feet AGL
Clouds: few clouds at 5000 feet AGL
Weather: no significant weather observed at this time

METAR text: UTNN 201100Z 17006KT CAVOK 17/04 Q1015 R15/CLRD60 NOSIG
Conditions at: UTNN (NUKUS/KARAKALPAK, UZ) observed 1100 UTC 20 March 2019
Temperature: 17.0°C (63°F)
Dewpoint: 4.0°C (39°F) [RH = 42%]
Pressure (altimeter): 29.97 inches Hg (1015.0 mb)
Winds: from the S (170 degrees) at 7 MPH (6 knots; 3.1 m/s)
Visibility: 6 or more miles (10+ km)
Ceiling: ceiling and visibility are OK
Clouds: unknown
Weather: no significant weather observed at this time

METAR text: UTNN 201030Z 15008KT CAVOK 17/04 Q1015 R15/CLRD60 NOSIG
Conditions at: UTNN (NUKUS/KARAKALPAK, UZ) observed 1030 UTC 20 March 2019
Temperature: 17.0°C (63°F)
Dewpoint: 4.0°C (39°F) [RH = 42%]
Pressure (altimeter): 29.97 inches Hg (1015.0 mb)
Winds: from the SSE (150 degrees) at 9 MPH (8 knots; 4.1 m/s)
Visibility: 6 or more miles (10+ km)
Ceiling: ceiling and visibility are OK
Clouds: unknown
Weather: no significant weather observed at this time

METAR text: UTNN 201000Z 13010KT CAVOK 17/04 Q1015 R15/CLRD60 NOSIG
Conditions at: UTNN (NUKUS/KARAKALPAK, UZ) observed 1000 UTC 20 March 2019
Temperature: 17.0°C (63°F)
Dewpoint: 4.0°C (39°F) [RH = 42%]
Pressure (altimeter): 29.97 inches Hg (1015.0 mb)
Winds: from the SE (130 degrees) at 12 MPH (10 knots; 5.1 m/s)
Visibility: 6 or more miles (10+ km)
Ceiling: ceiling and visibility are OK
Clouds: unknown
Weather: no significant weather observed at this time

METAR text: UTNN 200930Z 16010KT CAVOK 18/04 Q1015 R15/CLRD60 NOSIG
Conditions at: UTNN (NUKUS/KARAKALPAK, UZ) observed 0930 UTC 20 March 2019
Temperature: 18.0°C (64°F)
Dewpoint: 4.0°C (39°F) [RH = 39%]
Pressure (altimeter): 29.97 inches Hg (1015.0 mb)
Winds: from the SSE (160 degrees) at 12 MPH (10 knots; 5.1 m/s)
Visibility: 6 or more miles (10+ km)
Ceiling: ceiling and visibility are OK
Clouds: unknown
Weather: no significant weather observed at this time

METAR text: UTNN 200900Z 13008KT 9999 BKN047 18/04 Q1015 R15/CLRD60 NOSIG
Conditions at: UTNN (NUKUS/KARAKALPAK, UZ) observed 0900 UTC 20 March 2019
Temperature: 18.0°C (64°F)
Dewpoint: 4.0°C (39°F) [RH = 39%]
Pressure (altimeter): 29.97 inches Hg (1015.0 mb)
Winds: from the SE (130 degrees) at 9 MPH (8 knots; 4.1 m/s)
Visibility: 6 or more miles (10+ km)
Ceiling: 4700 feet AGL
Clouds: broken clouds at 4700 feet AGL
Weather: no significant weather observed at this time

METAR text: UTNN 200830Z 12008KT 9999 FEW023 17/04 Q1015 R15/CLRD60 NOSIG
Conditions at: UTNN (NUKUS/KARAKALPAK, UZ) observed 0830 UTC 20 March 2019
Temperature: 17.0°C (63°F)
Dewpoint: 4.0°C (39°F) [RH = 42%]
Pressure (altimeter): 29.97 inches Hg (1015.0 mb)
Winds: from the ESE (120 degrees) at 9 MPH (8 knots; 4.1 m/s)
Visibility: 6 or more miles (10+ km)
Ceiling: at least 12,000 feet AGL
Clouds: few clouds at 2300 feet AGL
Weather: no significant weather observed at this time

METAR text: UTNN 200800Z 15008KT 9999 FEW023 17/05 Q1015 R15/CLRD60 NOSIG
Conditions at: UTNN (NUKUS/KARAKALPAK, UZ) observed 0800 UTC 20 March 2019
Temperature: 17.0°C (63°F)
Dewpoint: 5.0°C (41°F) [RH = 45%]
Pressure (altimeter): 29.97 inches Hg (1015.0 mb)
Winds: from the SSE (150 degrees) at 9 MPH (8 knots; 4.1 m/s)
Visibility: 6 or more miles (10+ km)
Ceiling: at least 12,000 feet AGL
Clouds: few clouds at 2300 feet AGL
Weather: no significant weather observed at this time

METAR text: UTNN 200730Z 16008KT 9999 FEW023 16/06 Q1015 R15/CLRD60 NOSIG
Conditions at: UTNN (NUKUS/KARAKALPAK, UZ) observed 0730 UTC 20 March 2019
Temperature: 16.0°C (61°F)
Dewpoint: 6.0°C (43°F) [RH = 51%]
Pressure (altimeter): 29.97 inches Hg (1015.0 mb)
Winds: from the SSE (160 degrees) at 9 MPH (8 knots; 4.1 m/s)
Visibility: 6 or more miles (10+ km)
Ceiling: at least 12,000 feet AGL
Clouds: few clouds at 2300 feet AGL
Weather: no significant weather observed at this time

METAR text: UTNN 200700Z 15008KT 9999 FEW023 15/06 Q1015 R15/CLRD60 NOSIG
Conditions at: UTNN (NUKUS/KARAKALPAK, UZ) observed 0700 UTC 20 March 2019
Temperature: 15.0°C (59°F)
Dewpoint: 6.0°C (43°F) [RH = 55%]
Pressure (altimeter): 29.97 inches Hg (1015.0 mb)
Winds: from the SSE (150 degrees) at 9 MPH (8 knots; 4.1 m/s)
Visibility: 6 or more miles (10+ km)
Ceiling: at least 12,000 feet AGL
Clouds: few clouds at 2300 feet AGL
Weather: no significant weather observed at this time

METAR text: UTNN 200630Z 15008KT 9999 FEW023 15/07 Q1015 R15/CLRD60 NOSIG
Conditions at: UTNN (NUKUS/KARAKALPAK, UZ) observed 0630 UTC 20 March 2019
Temperature: 15.0°C (59°F)
Dewpoint: 7.0°C (45°F) [RH = 59%]
Pressure (altimeter): 29.97 inches Hg (1015.0 mb)
Winds: from the SSE (150 degrees) at 9 MPH (8 knots; 4.1 m/s)
Visibility: 6 or more miles (10+ km)
Ceiling: at least 12,000 feet AGL
Clouds: few clouds at 2300 feet AGL
Weather: no significant weather observed at this time

METAR text: UTNN 200600Z 13010KT 9999 FEW005 14/08 Q1015 R15/CLRD60 NOSIG RMK BASE500
Conditions at: UTNN (NUKUS/KARAKALPAK, UZ) observed 0600 UTC 20 March 2019
Temperature: 14.0°C (57°F)
Dewpoint: 8.0°C (46°F) [RH = 67%]
Pressure (altimeter): 29.97 inches Hg (1015.0 mb)
Winds: from the SE (130 degrees) at 12 MPH (10 knots; 5.1 m/s)
Visibility: 6 or more miles (10+ km)
Ceiling: at least 12,000 feet AGL
Clouds: few clouds at 500 feet AGL
Weather: no significant weather observed at this time

METAR text: UTNN 200530Z 12008KT 9999 FEW005 12/08 Q1015 R33/CLRD60 NOSIG RMK BASE500
Conditions at: UTNN (NUKUS/KARAKALPAK, UZ) observed 0530 UTC 20 March 2019
Temperature: 12.0°C (54°F)
Dewpoint: 8.0°C (46°F) [RH = 76%]
Pressure (altimeter): 29.97 inches Hg (1015.0 mb)
Winds: from the ESE (120 degrees) at 9 MPH (8 knots; 4.1 m/s)
Visibility: 6 or more miles (10+ km)
Ceiling: at least 12,000 feet AGL
Clouds: few clouds at 500 feet AGL
Weather: no significant weather observed at this time

METAR text: UTNN 200500Z 12006KT 9999 FEW005 11/07 Q1015 R33/CLRD60 NOSIG RMK BASE500
Conditions at: UTNN (NUKUS/KARAKALPAK, UZ) observed 0500 UTC 20 March 2019
Temperature: 11.0°C (52°F)
Dewpoint: 7.0°C (45°F) [RH = 76%]
Pressure (altimeter): 29.97 inches Hg (1015.0 mb)
Winds: from the ESE (120 degrees) at 7 MPH (6 knots; 3.1 m/s)
Visibility: 6 or more miles (10+ km)
Ceiling: at least 12,000 feet AGL
Clouds: few clouds at 500 feet AGL
Weather: no significant weather observed at this time

METAR text: UTNN 200430Z 11006KT 9999 SCT005 09/06 Q1015 R33/CLRD60 NOSIG RMK BASE500
Conditions at: UTNN (NUKUS/KARAKALPAK, UZ) observed 0430 UTC 20 March 2019
Temperature: 9.0°C (48°F)
Dewpoint: 6.0°C (43°F) [RH = 81%]
Pressure (altimeter): 29.97 inches Hg (1015.0 mb)
Winds: from the ESE (110 degrees) at 7 MPH (6 knots; 3.1 m/s)
Visibility: 6 or more miles (10+ km)
Ceiling: at least 12,000 feet AGL
Clouds: scattered clouds at 500 feet AGL
Weather: no significant weather observed at this time

METAR text: UTNN 200400Z 00000KT 9999 BKN005 08/02 Q1015 R33/CLRD60 NOSIG RMK BASE500
Conditions at: UTNN (NUKUS/KARAKALPAK, UZ) observed 0400 UTC 20 March 2019
Temperature: 8.0°C (46°F)
Dewpoint: 2.0°C (36°F) [RH = 66%]
Pressure (altimeter): 29.97 inches Hg (1015.0 mb)
Winds: calm
Visibility: 6 or more miles (10+ km)
Ceiling: 500 feet AGL
Clouds: broken clouds at 500 feet AGL
Weather: no significant weather observed at this time

METAR text: UTNN 200330Z 00000KT 9999 BKN005 05/01 Q1015 R33/CLRD60 NOSIG RMK BASE500
Conditions at: UTNN (NUKUS/KARAKALPAK, UZ) observed 0330 UTC 20 March 2019
Temperature: 5.0°C (41°F)
Dewpoint: 1.0°C (34°F) [RH = 75%]
Pressure (altimeter): 29.97 inches Hg (1015.0 mb)
Winds: calm
Visibility: 6 or more miles (10+ km)
Ceiling: 500 feet AGL
Clouds: broken clouds at 500 feet AGL
Weather: no significant weather observed at this time

METAR text: UTNN 200300Z 03002KT 9999 BKN005 04/M00 Q1015 R33/CLRD60 NOSIG RMK BASE500
Conditions at: UTNN (NUKUS/KARAKALPAK, UZ) observed 0300 UTC 20 March 2019
Temperature: 4.0°C (39°F)
Dewpoint: 0.0°C (32°F) [RH = 75%]
Pressure (altimeter): 29.97 inches Hg (1015.0 mb)
Winds: from the NNE (30 degrees) at 2 MPH (2 knots; 1.0 m/s)
Visibility: 6 or more miles (10+ km)
Ceiling: 500 feet AGL
Clouds: broken clouds at 500 feet AGL
Weather: no significant weather observed at this time

METAR text: UTNN 200230Z 00000KT CAVOK 03/M01 Q1014 R33/CLRD60 NOSIG
Conditions at: UTNN (NUKUS/KARAKALPAK, UZ) observed 0230 UTC 20 March 2019
Temperature: 3.0°C (37°F)
Dewpoint: -1.0°C (30°F) [RH = 75%]
Pressure (altimeter): 29.94 inches Hg (1014.0 mb)
Winds: calm
Visibility: 6 or more miles (10+ km)
Ceiling: ceiling and visibility are OK
Clouds: unknown
Weather: no significant weather observed at this time

METAR text: UTNN 200200Z VRB02KT CAVOK 04/M01 Q1014 R33/CLRD60 NOSIG
Conditions at: UTNN (NUKUS/KARAKALPAK, UZ) observed 0200 UTC 20 March 2019
Temperature: 4.0°C (39°F)
Dewpoint: -1.0°C (30°F) [RH = 70%]
Pressure (altimeter): 29.94 inches Hg (1014.0 mb)
Winds: variable direction winds at 2 MPH (2 knots; 1.0 m/s)
Visibility: 6 or more miles (10+ km)
Ceiling: ceiling and visibility are OK
Clouds: unknown
Weather: no significant weather observed at this time

METAR text: UTNN 200130Z 30004KT CAVOK 04/M01 Q1014 R33/CLRD60 NOSIG
Conditions at: UTNN (NUKUS/KARAKALPAK, UZ) observed 0130 UTC 20 March 2019
Temperature: 4.0°C (39°F)
Dewpoint: -1.0°C (30°F) [RH = 70%]
Pressure (altimeter): 29.94 inches Hg (1014.0 mb)
Winds: from the WNW (300 degrees) at 5 MPH (4 knots; 2.1 m/s)
Visibility: 6 or more miles (10+ km)
Ceiling: ceiling and visibility are OK
Clouds: unknown
Weather: no significant weather observed at this time

METAR text: UTNN 200100Z 29004KT 8000 NSC 04/M01 Q1014 R33/CLRD60 NOSIG
Conditions at: UTNN (NUKUS/KARAKALPAK, UZ) observed 0100 UTC 20 March 2019
Temperature: 4.0°C (39°F)
Dewpoint: -1.0°C (30°F) [RH = 70%]
Pressure (altimeter): 29.94 inches Hg (1014.0 mb)
Winds: from the WNW (290 degrees) at 5 MPH (4 knots; 2.1 m/s)
Visibility: 5 miles ( 8 km)
Ceiling: at least 12,000 feet AGL
Clouds: sky clear below 12,000 feet AGL
Weather: no significant weather observed at this time

METAR text: UTNN 200030Z 28004KT 8000 NSC 05/M01 Q1014 R33/CLRD60 NOSIG
Conditions at: UTNN (NUKUS/KARAKALPAK, UZ) observed 0030 UTC 20 March 2019
Temperature: 5.0°C (41°F)
Dewpoint: -1.0°C (30°F) [RH = 65%]
Pressure (altimeter): 29.94 inches Hg (1014.0 mb)
Winds: from the W (280 degrees) at 5 MPH (4 knots; 2.1 m/s)
Visibility: 5 miles ( 8 km)
Ceiling: at least 12,000 feet AGL
Clouds: sky clear below 12,000 feet AGL
Weather: no significant weather observed at this time

METAR text: UTNN 200000Z 28004KT 8000 NSC 05/M00 Q1013 R33/CLRD60 NOSIG
Conditions at: UTNN (NUKUS/KARAKALPAK, UZ) observed 0000 UTC 20 March 2019
Temperature: 5.0°C (41°F)
Dewpoint: 0.0°C (32°F) [RH = 70%]
Pressure (altimeter): 29.91 inches Hg (1013.0 mb)
Winds: from the W (280 degrees) at 5 MPH (4 knots; 2.1 m/s)
Visibility: 5 miles ( 8 km)
Ceiling: at least 12,000 feet AGL
Clouds: sky clear below 12,000 feet AGL
Weather: no significant weather observed at this time

METAR text: UTNN 192330Z 29004KT 8000 NSC 05/M00 Q1013 R33/CLRD60 NOSIG
Conditions at: UTNN (NUKUS/KARAKALPAK, UZ) observed 2330 UTC 19 March 2019
Temperature: 5.0°C (41°F)
Dewpoint: 0.0°C (32°F) [RH = 70%]
Pressure (altimeter): 29.91 inches Hg (1013.0 mb)
Winds: from the WNW (290 degrees) at 5 MPH (4 knots; 2.1 m/s)
Visibility: 5 miles ( 8 km)
Ceiling: at least 12,000 feet AGL
Clouds: sky clear below 12,000 feet AGL
Weather: no significant weather observed at this time

METAR text: UTNN 192300Z 32004KT 8000 NSC 05/M00 Q1013 R33/CLRD60 NOSIG
Conditions at: UTNN (NUKUS/KARAKALPAK, UZ) observed 2300 UTC 19 March 2019
Temperature: 5.0°C (41°F)
Dewpoint: 0.0°C (32°F) [RH = 70%]
Pressure (altimeter): 29.91 inches Hg (1013.0 mb)
Winds: from the NW (320 degrees) at 5 MPH (4 knots; 2.1 m/s)
Visibility: 5 miles ( 8 km)
Ceiling: at least 12,000 feet AGL
Clouds: sky clear below 12,000 feet AGL
Weather: no significant weather observed at this time

METAR text: UTNN 192230Z 32004KT 8000 NSC 06/M02 Q1013 R33/CLRD60 NOSIG
Conditions at: UTNN (NUKUS/KARAKALPAK, UZ) observed 2230 UTC 19 March 2019
Temperature: 6.0°C (43°F)
Dewpoint: -2.0°C (28°F) [RH = 56%]
Pressure (altimeter): 29.91 inches Hg (1013.0 mb)
Winds: from the NW (320 degrees) at 5 MPH (4 knots; 2.1 m/s)
Visibility: 5 miles ( 8 km)
Ceiling: at least 12,000 feet AGL
Clouds: sky clear below 12,000 feet AGL
Weather: no significant weather observed at this time

METAR text: UTNN 192200Z 31006KT 8000 NSC 06/M02 Q1013 R33/CLRD60 NOSIG
Conditions at: UTNN (NUKUS/KARAKALPAK, UZ) observed 2200 UTC 19 March 2019
Temperature: 6.0°C (43°F)
Dewpoint: -2.0°C (28°F) [RH = 56%]
Pressure (altimeter): 29.91 inches Hg (1013.0 mb)
Winds: from the NW (310 degrees) at 7 MPH (6 knots; 3.1 m/s)
Visibility: 5 miles ( 8 km)
Ceiling: at least 12,000 feet AGL
Clouds: sky clear below 12,000 feet AGL
Weather: no significant weather observed at this time

METAR text: UTNN 192130Z 32006KT 5000 HZ NSC 07/M03 Q1013 R33/CLRD60 NOSIG
Conditions at: UTNN (NUKUS/KARAKALPAK, UZ) observed 2130 UTC 19 March 2019
Temperature: 7.0°C (45°F)
Dewpoint: -3.0°C (27°F) [RH = 49%]
Pressure (altimeter): 29.91 inches Hg (1013.0 mb)
Winds: from the NW (320 degrees) at 7 MPH (6 knots; 3.1 m/s)
Visibility: 3 miles ( 5 km)
Ceiling: at least 12,000 feet AGL
Clouds: sky clear below 12,000 feet AGL
Weather: HZ  (haze)

METAR text: UTNN 192100Z 32008KT 3000 HZ NSC 07/M03 Q1013 R33/CLRD60 NOSIG
Conditions at: UTNN (NUKUS/KARAKALPAK, UZ) observed 2100 UTC 19 March 2019
Temperature: 7.0°C (45°F)
Dewpoint: -3.0°C (27°F) [RH = 49%]
Pressure (altimeter): 29.91 inches Hg (1013.0 mb)
Winds: from the NW (320 degrees) at 9 MPH (8 knots; 4.1 m/s)
Visibility: 1.86 miles (2.99 km)
Ceiling: at least 12,000 feet AGL
Clouds: sky clear below 12,000 feet AGL
Weather: HZ  (haze)

METAR text: UTNN 192030Z 31008KT 3000 HZ NSC 07/M00 Q1013 R33/CLRD60 NOSIG
Conditions at: UTNN (NUKUS/KARAKALPAK, UZ) observed 2030 UTC 19 March 2019
Temperature: 7.0°C (45°F)
Dewpoint: 0.0°C (32°F) [RH = 61%]
Pressure (altimeter): 29.91 inches Hg (1013.0 mb)
Winds: from the NW (310 degrees) at 9 MPH (8 knots; 4.1 m/s)
Visibility: 1.86 miles (2.99 km)
Ceiling: at least 12,000 feet AGL
Clouds: sky clear below 12,000 feet AGL
Weather: HZ  (haze)

METAR text: UTNN 192000Z 32006KT 3000 HZ NSC 08/00 Q1013 R33/CLRD60 NOSIG
Conditions at: UTNN (NUKUS/KARAKALPAK, UZ) observed 2000 UTC 19 March 2019
Temperature: 8.0°C (46°F)
Dewpoint: 0.0°C (32°F) [RH = 57%]
Pressure (altimeter): 29.91 inches Hg (1013.0 mb)
Winds: from the NW (320 degrees) at 7 MPH (6 knots; 3.1 m/s)
Visibility: 1.86 miles (2.99 km)
Ceiling: at least 12,000 feet AGL
Clouds: sky clear below 12,000 feet AGL
Weather: HZ  (haze)

METAR text: UTNN 191930Z 31008KT 3000 HZ NSC 08/M00 Q1013 R33/CLRD60 NOSIG
Conditions at: UTNN (NUKUS/KARAKALPAK, UZ) observed 1930 UTC 19 March 2019
Temperature: 8.0°C (46°F)
Dewpoint: 0.0°C (32°F) [RH = 57%]
Pressure (altimeter): 29.91 inches Hg (1013.0 mb)
Winds: from the NW (310 degrees) at 9 MPH (8 knots; 4.1 m/s)
Visibility: 1.86 miles (2.99 km)
Ceiling: at least 12,000 feet AGL
Clouds: sky clear below 12,000 feet AGL
Weather: HZ  (haze)

METAR text: UTNN 191900Z 32008KT 3000 HZ NSC 09/00 Q1013 R33/CLRD60 NOSIG
Conditions at: UTNN (NUKUS/KARAKALPAK, UZ) observed 1900 UTC 19 March 2019
Temperature: 9.0°C (48°F)
Dewpoint: 0.0°C (32°F) [RH = 53%]
Pressure (altimeter): 29.91 inches Hg (1013.0 mb)
Winds: from the NW (320 degrees) at 9 MPH (8 knots; 4.1 m/s)
Visibility: 1.86 miles (2.99 km)
Ceiling: at least 12,000 feet AGL
Clouds: sky clear below 12,000 feet AGL
Weather: HZ  (haze)

METAR text: UTNN 191830Z 32008KT 3000 HZ NSC 09/00 Q1014 R33/CLRD60 NOSIG
Conditions at: UTNN (NUKUS/KARAKALPAK, UZ) observed 1830 UTC 19 March 2019
Temperature: 9.0°C (48°F)
Dewpoint: 0.0°C (32°F) [RH = 53%]
Pressure (altimeter): 29.94 inches Hg (1014.0 mb)
Winds: from the NW (320 degrees) at 9 MPH (8 knots; 4.1 m/s)
Visibility: 1.86 miles (2.99 km)
Ceiling: at least 12,000 feet AGL
Clouds: sky clear below 12,000 feet AGL
Weather: HZ  (haze)

METAR text: UTNN 191800Z 33010KT 3000 HZ NSC 09/M01 Q1014 R33/CLRD60 NOSIG
Conditions at: UTNN (NUKUS/KARAKALPAK, UZ) observed 1800 UTC 19 March 2019
Temperature: 9.0°C (48°F)
Dewpoint: -1.0°C (30°F) [RH = 49%]
Pressure (altimeter): 29.94 inches Hg (1014.0 mb)
Winds: from the NNW (330 degrees) at 12 MPH (10 knots; 5.1 m/s)
Visibility: 1.86 miles (2.99 km)
Ceiling: at least 12,000 feet AGL
Clouds: sky clear below 12,000 feet AGL
Weather: HZ  (haze)

METAR text: UTNN 191730Z 32008KT 3000 HZ NSC 09/M01 Q1014 R33/CLRD60 NOSIG
Conditions at: UTNN (NUKUS/KARAKALPAK, UZ) observed 1730 UTC 19 March 2019
Temperature: 9.0°C (48°F)
Dewpoint: -1.0°C (30°F) [RH = 49%]
Pressure (altimeter): 29.94 inches Hg (1014.0 mb)
Winds: from the NW (320 degrees) at 9 MPH (8 knots; 4.1 m/s)
Visibility: 1.86 miles (2.99 km)
Ceiling: at least 12,000 feet AGL
Clouds: sky clear below 12,000 feet AGL
Weather: HZ  (haze)

METAR text: UTNN 191700Z 32010KT 5000 HZ NSC 09/M01 Q1014 R33/CLRD60 NOSIG
Conditions at: UTNN (NUKUS/KARAKALPAK, UZ) observed 1700 UTC 19 March 2019
Temperature: 9.0°C (48°F)
Dewpoint: -1.0°C (30°F) [RH = 49%]
Pressure (altimeter): 29.94 inches Hg (1014.0 mb)
Winds: from the NW (320 degrees) at 12 MPH (10 knots; 5.1 m/s)
Visibility: 3 miles ( 5 km)
Ceiling: at least 12,000 feet AGL
Clouds: sky clear below 12,000 feet AGL
Weather: HZ  (haze)

METAR text: UTNN 191630Z 32008KT CAVOK 10/M01 Q1014 R33/CLRD60 NOSIG
Conditions at: UTNN (NUKUS/KARAKALPAK, UZ) observed 1630 UTC 19 March 2019
Temperature: 10.0°C (50°F)
Dewpoint: -1.0°C (30°F) [RH = 46%]
Pressure (altimeter): 29.94 inches Hg (1014.0 mb)
Winds: from the NW (320 degrees) at 9 MPH (8 knots; 4.1 m/s)
Visibility: 6 or more miles (10+ km)
Ceiling: ceiling and visibility are OK
Clouds: unknown
Weather: no significant weather observed at this time

METAR text: UTNN 191600Z 33008KT CAVOK 11/M00 Q1013 R33/CLRD60 NOSIG
Conditions at: UTNN (NUKUS/KARAKALPAK, UZ) observed 1600 UTC 19 March 2019
Temperature: 11.0°C (52°F)
Dewpoint: 0.0°C (32°F) [RH = 47%]
Pressure (altimeter): 29.91 inches Hg (1013.0 mb)
Winds: from the NNW (330 degrees) at 9 MPH (8 knots; 4.1 m/s)
Visibility: 6 or more miles (10+ km)
Ceiling: ceiling and visibility are OK
Clouds: unknown
Weather: no significant weather observed at this time

METAR text: UTNN 191530Z 32008KT CAVOK 11/M00 Q1013 R33/CLRD60 NOSIG
Conditions at: UTNN (NUKUS/KARAKALPAK, UZ) observed 1530 UTC 19 March 2019
Temperature: 11.0°C (52°F)
Dewpoint: 0.0°C (32°F) [RH = 47%]
Pressure (altimeter): 29.91 inches Hg (1013.0 mb)
Winds: from the NW (320 degrees) at 9 MPH (8 knots; 4.1 m/s)
Visibility: 6 or more miles (10+ km)
Ceiling: ceiling and visibility are OK
Clouds: unknown
Weather: no significant weather observed at this time

METAR text: UTNN 191500Z 33008KT CAVOK 12/M00 Q1013 R33/CLRD60 NOSIG
Conditions at: UTNN (NUKUS/KARAKALPAK, UZ) observed 1500 UTC 19 March 2019
Temperature: 12.0°C (54°F)
Dewpoint: 0.0°C (32°F) [RH = 44%]
Pressure (altimeter): 29.91 inches Hg (1013.0 mb)
Winds: from the NNW (330 degrees) at 9 MPH (8 knots; 4.1 m/s)
Visibility: 6 or more miles (10+ km)
Ceiling: ceiling and visibility are OK
Clouds: unknown
Weather: no significant weather observed at this time

METAR text: UTNN 191430Z 34008KT CAVOK 13/M00 Q1013 R33/CLRD60 NOSIG
Conditions at: UTNN (NUKUS/KARAKALPAK, UZ) observed 1430 UTC 19 March 2019
Temperature: 13.0°C (55°F)
Dewpoint: 0.0°C (32°F) [RH = 41%]
Pressure (altimeter): 29.91 inches Hg (1013.0 mb)
Winds: from the NNW (340 degrees) at 9 MPH (8 knots; 4.1 m/s)
Visibility: 6 or more miles (10+ km)
Ceiling: ceiling and visibility are OK
Clouds: unknown
Weather: no significant weather observed at this time

METAR text: UTNN 191400Z 34008KT CAVOK 13/00 Q1012 R33/CLRD60 NOSIG
Conditions at: UTNN (NUKUS/KARAKALPAK, UZ) observed 1400 UTC 19 March 2019
Temperature: 13.0°C (55°F)
Dewpoint: 0.0°C (32°F) [RH = 41%]
Pressure (altimeter): 29.88 inches Hg (1012.0 mb)
Winds: from the NNW (340 degrees) at 9 MPH (8 knots; 4.1 m/s)
Visibility: 6 or more miles (10+ km)
Ceiling: ceiling and visibility are OK
Clouds: unknown
Weather: no significant weather observed at this time

METAR text: UTNN 191330Z 36008KT CAVOK 14/M01 Q1012 R33/CLRD60 NOSIG
Conditions at: UTNN (NUKUS/KARAKALPAK, UZ) observed 1330 UTC 19 March 2019
Temperature: 14.0°C (57°F)
Dewpoint: -1.0°C (30°F) [RH = 36%]
Pressure (altimeter): 29.88 inches Hg (1012.0 mb)
Winds: from the N (360 degrees) at 9 MPH (8 knots; 4.1 m/s)
Visibility: 6 or more miles (10+ km)
Ceiling: ceiling and visibility are OK
Clouds: unknown
Weather: no significant weather observed at this time

METAR text: UTNN 191300Z 35008KT CAVOK 15/M00 Q1012 R33/CLRD60 NOSIG
Conditions at: UTNN (NUKUS/KARAKALPAK, UZ) observed 1300 UTC 19 March 2019
Temperature: 15.0°C (59°F)
Dewpoint: 0.0°C (32°F) [RH = 36%]
Pressure (altimeter): 29.88 inches Hg (1012.0 mb)
Winds: from the N (350 degrees) at 9 MPH (8 knots; 4.1 m/s)
Visibility: 6 or more miles (10+ km)
Ceiling: ceiling and visibility are OK
Clouds: unknown
Weather: no significant weather observed at this time

METAR text: UTNN 191230Z 34010KT CAVOK 15/M01 Q1011 R33/CLRD60 NOSIG
Conditions at: UTNN (NUKUS/KARAKALPAK, UZ) observed 1230 UTC 19 March 2019
Temperature: 15.0°C (59°F)
Dewpoint: -1.0°C (30°F) [RH = 33%]
Pressure (altimeter): 29.85 inches Hg (1011.0 mb)
Winds: from the NNW (340 degrees) at 12 MPH (10 knots; 5.1 m/s)
Visibility: 6 or more miles (10+ km)
Ceiling: ceiling and visibility are OK
Clouds: unknown
Weather: no significant weather observed at this time

METAR text: UTNN 191200Z 34012KT 9999 FEW050CB 15/M01 Q1011 R33/CLRD60 NOSIG
Conditions at: UTNN (NUKUS/KARAKALPAK, UZ) observed 1200 UTC 19 March 2019
Temperature: 15.0°C (59°F)
Dewpoint: -1.0°C (30°F) [RH = 33%]
Pressure (altimeter): 29.85 inches Hg (1011.0 mb)
Winds: from the NNW (340 degrees) at 14 MPH (12 knots; 6.2 m/s)
Visibility: 6 or more miles (10+ km)
Ceiling: at least 12,000 feet AGL
Clouds: few clouds at 5000 feet AGL
Weather: no significant weather observed at this time

METAR text: UTNN 191130Z 34014KT 9999 FEW050CB 15/M00 Q1011 R33/CLRD60 NOSIG
Conditions at: UTNN (NUKUS/KARAKALPAK, UZ) observed 1130 UTC 19 March 2019
Temperature: 15.0°C (59°F)
Dewpoint: 0.0°C (32°F) [RH = 36%]
Pressure (altimeter): 29.85 inches Hg (1011.0 mb)
Winds: from the NNW (340 degrees) at 16 MPH (14 knots; 7.2 m/s)
Visibility: 6 or more miles (10+ km)
Ceiling: at least 12,000 feet AGL
Clouds: few clouds at 5000 feet AGL
Weather: no significant weather observed at this time

METAR text: UTNN 191100Z 35012KT 9999 FEW050CB 15/M00 Q1011 R33/CLRD60 NOSIG
Conditions at: UTNN (NUKUS/KARAKALPAK, UZ) observed 1100 UTC 19 March 2019
Temperature: 15.0°C (59°F)
Dewpoint: 0.0°C (32°F) [RH = 36%]
Pressure (altimeter): 29.85 inches Hg (1011.0 mb)
Winds: from the N (350 degrees) at 14 MPH (12 knots; 6.2 m/s)
Visibility: 6 or more miles (10+ km)
Ceiling: at least 12,000 feet AGL
Clouds: few clouds at 5000 feet AGL
Weather: no significant weather observed at this time

METAR text: UTNN 191030Z 35010KT 9999 FEW050CB 14/01 Q1011 R33/CLRD60 NOSIG
Conditions at: UTNN (NUKUS/KARAKALPAK, UZ) observed 1030 UTC 19 March 2019
Temperature: 14.0°C (57°F)
Dewpoint: 1.0°C (34°F) [RH = 41%]
Pressure (altimeter): 29.85 inches Hg (1011.0 mb)
Winds: from the N (350 degrees) at 12 MPH (10 knots; 5.1 m/s)
Visibility: 6 or more miles (10+ km)
Ceiling: at least 12,000 feet AGL
Clouds: few clouds at 5000 feet AGL
Weather: no significant weather observed at this time

METAR text: UTNN 191000Z 33016KT 9999 -SHRA FEW050CB 13/01 Q1010 R33/CLRD60 NOSIG
Conditions at: UTNN (NUKUS/KARAKALPAK, UZ) observed 1000 UTC 19 March 2019
Temperature: 13.0°C (55°F)
Dewpoint: 1.0°C (34°F) [RH = 44%]
Pressure (altimeter): 29.82 inches Hg (1010.0 mb)
Winds: from the NNW (330 degrees) at 18 MPH (16 knots; 8.2 m/s)
Visibility: 6 or more miles (10+ km)
Ceiling: at least 12,000 feet AGL
Clouds: few clouds at 5000 feet AGL
Weather: -SHRA  (light rain showers)

METAR text: UTNN 190930Z 34012KT 9999 FEW050CB 13/01 Q1011 R33/CLRD60 NOSIG
Conditions at: UTNN (NUKUS/KARAKALPAK, UZ) observed 0930 UTC 19 March 2019
Temperature: 13.0°C (55°F)
Dewpoint: 1.0°C (34°F) [RH = 44%]
Pressure (altimeter): 29.85 inches Hg (1011.0 mb)
Winds: from the NNW (340 degrees) at 14 MPH (12 knots; 6.2 m/s)
Visibility: 6 or more miles (10+ km)
Ceiling: at least 12,000 feet AGL
Clouds: few clouds at 5000 feet AGL
Weather: no significant weather observed at this time

METAR text: UTNN 190900Z 34010KT 9999 FEW050CB 12/01 Q1011 R33/CLRD60 NOSIG
Conditions at: UTNN (NUKUS/KARAKALPAK, UZ) observed 0900 UTC 19 March 2019
Temperature: 12.0°C (54°F)
Dewpoint: 1.0°C (34°F) [RH = 47%]
Pressure (altimeter): 29.85 inches Hg (1011.0 mb)
Winds: from the NNW (340 degrees) at 12 MPH (10 knots; 5.1 m/s)
Visibility: 6 or more miles (10+ km)
Ceiling: at least 12,000 feet AGL
Clouds: few clouds at 5000 feet AGL
Weather: no significant weather observed at this time

METAR text: UTNN 190830Z 34012KT 9999 FEW050CB 12/01 Q1011 R33/CLRD60 NOSIG
Conditions at: UTNN (NUKUS/KARAKALPAK, UZ) observed 0830 UTC 19 March 2019
Temperature: 12.0°C (54°F)
Dewpoint: 1.0°C (34°F) [RH = 47%]
Pressure (altimeter): 29.85 inches Hg (1011.0 mb)
Winds: from the NNW (340 degrees) at 14 MPH (12 knots; 6.2 m/s)
Visibility: 6 or more miles (10+ km)
Ceiling: at least 12,000 feet AGL
Clouds: few clouds at 5000 feet AGL
Weather: no significant weather observed at this time

METAR text: UTNN 190800Z 35010KT 9999 FEW050CB 11/02 Q1012 R33/CLRD60 NOSIG
Conditions at: UTNN (NUKUS/KARAKALPAK, UZ) observed 0800 UTC 19 March 2019
Temperature: 11.0°C (52°F)
Dewpoint: 2.0°C (36°F) [RH = 54%]
Pressure (altimeter): 29.88 inches Hg (1012.0 mb)
Winds: from the N (350 degrees) at 12 MPH (10 knots; 5.1 m/s)
Visibility: 6 or more miles (10+ km)
Ceiling: at least 12,000 feet AGL
Clouds: few clouds at 5000 feet AGL
Weather: no significant weather observed at this time

METAR text: UTNN 190730Z 35014KT 9999 -SHRA FEW050CB 11/03 Q1011 R33/CLRD60 NOSIG
Conditions at: UTNN (NUKUS/KARAKALPAK, UZ) observed 0730 UTC 19 March 2019
Temperature: 11.0°C (52°F)
Dewpoint: 3.0°C (37°F) [RH = 58%]
Pressure (altimeter): 29.85 inches Hg (1011.0 mb)
Winds: from the N (350 degrees) at 16 MPH (14 knots; 7.2 m/s)
Visibility: 6 or more miles (10+ km)
Ceiling: at least 12,000 feet AGL
Clouds: few clouds at 5000 feet AGL
Weather: -SHRA  (light rain showers)

METAR text: UTNN 190700Z 36012KT 9999 -SHRA FEW050CB 11/01 Q1011 R33/CLRD60 NOSIG
Conditions at: UTNN (NUKUS/KARAKALPAK, UZ) observed 0700 UTC 19 March 2019
Temperature: 11.0°C (52°F)
Dewpoint: 1.0°C (34°F) [RH = 50%]
Pressure (altimeter): 29.85 inches Hg (1011.0 mb)
Winds: from the N (360 degrees) at 14 MPH (12 knots; 6.2 m/s)
Visibility: 6 or more miles (10+ km)
Ceiling: at least 12,000 feet AGL
Clouds: few clouds at 5000 feet AGL
Weather: -SHRA  (light rain showers)

METAR text: UTNN 190630Z 36010KT 9999 FEW050CB 11/01 Q1011 R33/CLRD60 NOSIG
Conditions at: UTNN (NUKUS/KARAKALPAK, UZ) observed 0630 UTC 19 March 2019
Temperature: 11.0°C (52°F)
Dewpoint: 1.0°C (34°F) [RH = 50%]
Pressure (altimeter): 29.85 inches Hg (1011.0 mb)
Winds: from the N (360 degrees) at 12 MPH (10 knots; 5.1 m/s)
Visibility: 6 or more miles (10+ km)
Ceiling: at least 12,000 feet AGL
Clouds: few clouds at 5000 feet AGL
Weather: no significant weather observed at this time

METAR text: UTNN 190600Z 35014KT 9999 FEW050CB 11/01 Q1011 R33/CLRD60 NOSIG
Conditions at: UTNN (NUKUS/KARAKALPAK, UZ) observed 0600 UTC 19 March 2019
Temperature: 11.0°C (52°F)
Dewpoint: 1.0°C (34°F) [RH = 50%]
Pressure (altimeter): 29.85 inches Hg (1011.0 mb)
Winds: from the N (350 degrees) at 16 MPH (14 knots; 7.2 m/s)
Visibility: 6 or more miles (10+ km)
Ceiling: at least 12,000 feet AGL
Clouds: few clouds at 5000 feet AGL
Weather: no significant weather observed at this time

METAR text: UTNN 190530Z 35012KT 9999 FEW050CB 11/01 Q1010 R33/CLRD60 NOSIG
Conditions at: UTNN (NUKUS/KARAKALPAK, UZ) observed 0530 UTC 19 March 2019
Temperature: 11.0°C (52°F)
Dewpoint: 1.0°C (34°F) [RH = 50%]
Pressure (altimeter): 29.82 inches Hg (1010.0 mb)
Winds: from the N (350 degrees) at 14 MPH (12 knots; 6.2 m/s)
Visibility: 6 or more miles (10+ km)
Ceiling: at least 12,000 feet AGL
Clouds: few clouds at 5000 feet AGL
Weather: no significant weather observed at this time

METAR text: UTNN 190500Z 01010KT 9999 FEW050CB 11/01 Q1010 R33/CLRD60 NOSIG
Conditions at: UTNN (NUKUS/KARAKALPAK, UZ) observed 0500 UTC 19 March 2019
Temperature: 11.0°C (52°F)
Dewpoint: 1.0°C (34°F) [RH = 50%]
Pressure (altimeter): 29.82 inches Hg (1010.0 mb)
Winds: from the N (10 degrees) at 12 MPH (10 knots; 5.1 m/s)
Visibility: 6 or more miles (10+ km)
Ceiling: at least 12,000 feet AGL
Clouds: few clouds at 5000 feet AGL
Weather: no significant weather observed at this time

METAR text: UTNN 190430Z 01012KT 9999 FEW050CB 10/01 Q1010 R33/CLRD60 NOSIG
Conditions at: UTNN (NUKUS/KARAKALPAK, UZ) observed 0430 UTC 19 March 2019
Temperature: 10.0°C (50°F)
Dewpoint: 1.0°C (34°F) [RH = 53%]
Pressure (altimeter): 29.82 inches Hg (1010.0 mb)
Winds: from the N (10 degrees) at 14 MPH (12 knots; 6.2 m/s)
Visibility: 6 or more miles (10+ km)
Ceiling: at least 12,000 feet AGL
Clouds: few clouds at 5000 feet AGL
Weather: no significant weather observed at this time

METAR text: UTNN 190400Z 02014KT 9999 FEW050CB 10/01 Q1010 R33/CLRD60 NOSIG
Conditions at: UTNN (NUKUS/KARAKALPAK, UZ) observed 0400 UTC 19 March 2019
Temperature: 10.0°C (50°F)
Dewpoint: 1.0°C (34°F) [RH = 53%]
Pressure (altimeter): 29.82 inches Hg (1010.0 mb)
Winds: from the NNE (20 degrees) at 16 MPH (14 knots; 7.2 m/s)
Visibility: 6 or more miles (10+ km)
Ceiling: at least 12,000 feet AGL
Clouds: few clouds at 5000 feet AGL
Weather: no significant weather observed at this time

METAR text: UTNN 190330Z 02012KT CAVOK 10/04 Q1010 R33/CLRD60 NOSIG
Conditions at: UTNN (NUKUS/KARAKALPAK, UZ) observed 0330 UTC 19 March 2019
Temperature: 10.0°C (50°F)
Dewpoint: 4.0°C (39°F) [RH = 66%]
Pressure (altimeter): 29.82 inches Hg (1010.0 mb)
Winds: from the NNE (20 degrees) at 14 MPH (12 knots; 6.2 m/s)
Visibility: 6 or more miles (10+ km)
Ceiling: ceiling and visibility are OK
Clouds: unknown
Weather: no significant weather observed at this time

Forecast for: AMD
Text: TAF AMD UTNN 201140Z 2012/2112 VRB04KT 9999 SCT040 BKN100
Forecast period: 1200 UTC 20 March 2019 to 1200 UTC 21 March 2019
Forecast type: FROM: standard forecast or significant change
Winds: variable direction winds at 5 MPH (4 knots; 2.1 m/s)
Visibility: 6 or more miles 10+ km)
Ceiling: 10000 feet AGL
Clouds: scattered clouds at 4000 feet AGL
broken clouds at 10000 feet AGL
Weather: no significant weather forecast for this period
Text: TEMPO 2012/2018 14010G20KT -SHRA BKN033CB OVC100
Forecast period: 1200 to 1800 UTC 20 March 2019
Forecast type: TEMPORARY: The following changes expected for less than half the time period
Winds: from the SE (140 degrees) at 12 MPH (10 knots; 5.1 m/s)
gusting to 23 MPH (20 knots; 10.3 m/s)
Visibility: missing
Ceiling: 3300 feet AGL
Clouds: broken clouds at 3300 feet AGL
overcast cloud deck at 10000 feet AGL
Weather: -SHRA  (light rain showers)